createdAt,value
2019-04-20T00:00:09.816Z,10.6
2019-04-20T00:00:29.312Z,10.8
2019-04-20T00:00:48.707Z,11
2019-04-20T00:01:04.033Z,11.4
2019-04-20T00:01:26.681Z,10.5
2019-04-20T00:01:41.594Z,11.7
2019-04-20T00:02:07.113Z,12.1
2019-04-20T00:02:20.574Z,10.8
2019-04-20T00:02:36.582Z,10.7
2019-04-20T00:02:57.084Z,10.3
2019-04-20T00:03:12.587Z,10.6
2019-04-20T00:03:36.657Z,10.9
2019-04-20T00:03:50.530Z,10.8
2019-04-20T00:04:09.800Z,10.7
2019-04-20T00:04:30.896Z,10.8
2019-04-20T00:04:46.083Z,10.7
2019-04-20T00:05:04.076Z,11.4
2019-04-20T00:05:22.097Z,11.7
2019-04-20T00:05:40.090Z,12
2019-04-20T00:05:58.085Z,11.8
2019-04-20T00:06:16.051Z,11.7
2019-04-20T00:06:39.733Z,11.1
2019-04-20T00:06:54.672Z,11.4
2019-04-20T00:07:11.005Z,10.6
2019-04-20T00:07:33.059Z,10.3
2019-04-20T00:07:48.990Z,11
2019-04-20T00:08:14.921Z,11.4
2019-04-20T00:08:30.051Z,11.1
2019-04-20T00:08:46.187Z,10.9
2019-04-20T00:09:10.070Z,10.7
2019-04-20T00:09:26.446Z,10.8
2019-04-20T00:09:50.090Z,10.9
2019-04-20T00:10:08.419Z,11.6
2019-04-20T00:10:23.024Z,11.7
2019-04-20T00:10:47.240Z,11.2
2019-04-20T00:11:05.713Z,11.6
2019-04-20T00:11:20.675Z,11.6
2019-04-20T00:11:49.213Z,11.4
2019-04-20T00:12:03.706Z,11.4
2019-04-20T00:12:20.167Z,11
2019-04-20T00:12:42.173Z,11.1
2019-04-20T00:13:05.408Z,11
2019-04-20T00:13:23.894Z,11
2019-04-20T00:13:40.410Z,11.3
2019-04-20T00:13:57.615Z,11.4
2019-04-20T00:14:14.146Z,11.1
2019-04-20T00:14:30.733Z,11.3
2019-04-20T00:14:46.817Z,11.4
2019-04-20T00:15:05.732Z,11.4
2019-04-20T00:15:24.857Z,11
2019-04-20T00:15:43.832Z,10.4
2019-04-20T00:16:02.823Z,12.2
2019-04-20T00:16:21.789Z,12.7
2019-04-20T00:16:40.751Z,11.3
2019-04-20T00:16:59.770Z,10.8
2019-04-20T00:17:18.743Z,10.8
2019-04-20T00:17:39.259Z,10.7
2019-04-20T00:18:00.292Z,10.1
2019-04-20T00:18:15.701Z,10.1
2019-04-20T00:18:42.092Z,10.9
2019-04-20T00:18:57.230Z,11
2019-04-20T00:19:15.156Z,11.2
2019-04-20T00:19:38.744Z,11.2
2019-04-20T00:19:54.498Z,11.2
2019-04-20T00:20:15.871Z,10.8
2019-04-20T00:20:32.822Z,11
2019-04-20T00:20:50.212Z,11.6
2019-04-20T00:21:11.586Z,11.9
2019-04-20T00:21:27.722Z,11.1
2019-04-20T00:21:53.326Z,10.6
2019-04-20T00:22:08.619Z,10.6
2019-04-20T00:22:31.281Z,10.6
2019-04-20T00:22:47.598Z,10.8
2019-04-20T00:23:02.522Z,11.5
2019-04-20T00:23:26.805Z,11
2019-04-20T00:23:43.665Z,11
2019-04-20T00:24:00.962Z,11
2019-04-20T00:24:23.291Z,12.2
2019-04-20T00:24:39.227Z,12
2019-04-20T00:25:02.675Z,10.9
2019-04-20T00:25:18.913Z,10.7
2019-04-20T00:25:46.918Z,11.1
2019-04-20T00:26:04.257Z,10.8
2019-04-20T00:26:20.458Z,11.2
2019-04-20T00:26:59.092Z,11.6
2019-04-20T00:27:19.139Z,11.1
2019-04-20T00:27:31.144Z,11.6
2019-04-20T00:27:48.451Z,11
2019-04-20T00:28:04.206Z,10.7
2019-04-20T00:28:23.889Z,11.3
2019-04-20T00:28:44.094Z,11.1
2019-04-20T00:29:00.000Z,11
2019-04-20T00:29:21.183Z,10.3
2019-04-20T00:29:39.166Z,11.5
2019-04-20T00:29:58.539Z,11.3
2019-04-20T00:30:24.672Z,10.9
2019-04-20T00:30:38.403Z,11.3
2019-04-20T00:30:58.478Z,11.6
2019-04-20T00:31:12.206Z,10.7
2019-04-20T00:31:29.492Z,10.8
2019-04-20T00:31:48.780Z,11.2
2019-04-20T00:32:05.926Z,11.6
2019-04-20T00:32:22.824Z,11.7
2019-04-20T00:32:46.311Z,11
2019-04-20T00:33:01.676Z,11.3
2019-04-20T00:33:26.624Z,11.6
2019-04-20T00:33:42.117Z,11
2019-04-20T00:33:59.020Z,11.5
2019-04-20T00:34:15.443Z,11.1
2019-04-20T00:34:31.930Z,11
2019-04-20T00:34:47.566Z,10.3
2019-04-20T00:35:04.979Z,10.8
2019-04-20T00:35:23.924Z,11.9
2019-04-20T00:35:43.009Z,11.5
2019-04-20T00:36:01.939Z,12.1
2019-04-20T00:36:20.920Z,11.9
2019-04-20T00:36:39.978Z,11.2
2019-04-20T00:36:58.942Z,11.9
2019-04-20T00:37:17.928Z,12.2
2019-04-20T00:37:36.851Z,11.1
2019-04-20T00:37:55.899Z,11
2019-04-20T00:38:14.827Z,11.7
2019-04-20T00:38:40.739Z,11.7
2019-04-20T00:38:56.832Z,11.4
2019-04-20T00:39:13.504Z,11
2019-04-20T00:39:30.712Z,11.3
2019-04-20T00:39:49.700Z,11.7
2019-04-20T00:40:08.685Z,11.3
2019-04-20T00:40:29.348Z,11
2019-04-20T00:40:49.428Z,10.9
2019-04-20T00:41:10.789Z,10.8
2019-04-20T00:41:26.395Z,11.7
2019-04-20T00:41:51.353Z,12.3
2019-04-20T00:42:07.960Z,10.7
2019-04-20T00:42:30.045Z,11.1
2019-04-20T00:42:47.106Z,11.5
2019-04-20T00:43:01.763Z,10.4
2019-04-20T00:43:26.153Z,10.6
2019-04-20T00:43:40.774Z,11.7
2019-04-20T00:44:04.522Z,12.1
2019-04-20T00:44:23.130Z,10.9
2019-04-20T00:44:39.425Z,11
2019-04-20T00:45:02.775Z,11.4
2019-04-20T00:45:18.969Z,11.3
2019-04-20T00:45:35.020Z,11.1
2019-04-20T00:46:01.007Z,11.1
2019-04-20T00:46:16.473Z,11.7
2019-04-20T00:46:36.838Z,11.4
2019-04-20T00:47:00.676Z,12.1
2019-04-20T00:47:19.831Z,12.2
2019-04-20T00:47:36.741Z,11.6
2019-04-20T00:47:54.134Z,11.8
2019-04-20T00:48:09.373Z,11.2
2019-04-20T00:48:33.580Z,11.8
2019-04-20T00:48:50.372Z,11.7
2019-04-20T00:49:17.090Z,12.4
2019-04-20T00:49:34.408Z,11.4
2019-04-20T00:49:52.043Z,12.2
2019-04-20T00:50:11.161Z,11.1
2019-04-20T00:50:34.034Z,11
2019-04-20T00:50:48.572Z,12
2019-04-20T00:51:16.377Z,11.8
2019-04-20T00:51:30.383Z,12.3
2019-04-20T00:51:50.551Z,11.5
2019-04-20T00:52:18.434Z,11
2019-04-20T00:52:27.225Z,10.4
2019-04-20T00:52:46.623Z,11.7
2019-04-20T00:53:03.005Z,12.1
2019-04-20T00:53:16.962Z,11.7
2019-04-20T00:53:33.239Z,12.2
2019-04-20T00:53:50.180Z,12.3
2019-04-20T00:54:06.101Z,12.1
2019-04-20T00:54:25.059Z,11.9
2019-04-20T00:54:44.043Z,11.2
2019-04-20T00:55:02.966Z,11
2019-04-20T00:55:21.949Z,11.5
2019-04-20T00:55:41.021Z,11.2
2019-04-20T00:56:00.039Z,10.6
2019-04-20T00:56:19.000Z,11.2
2019-04-20T00:56:37.987Z,11.3
2019-04-20T00:57:09.179Z,11.8
2019-04-20T00:57:24.314Z,12.2
2019-04-20T00:57:43.426Z,10.9
2019-04-20T00:57:58.333Z,11.6
2019-04-20T00:58:19.959Z,12.2
2019-04-20T00:58:38.843Z,11.7
2019-04-20T00:59:02.307Z,12.3
2019-04-20T00:59:23.046Z,11.4
2019-04-20T00:59:39.233Z,12
2019-04-20T01:00:04.486Z,11.2
2019-04-20T01:00:25.657Z,11.8
2019-04-20T01:00:40.417Z,11.2
2019-04-20T01:01:06.582Z,11.1
2019-04-20T01:01:24.527Z,11.4
2019-04-20T01:01:42.107Z,11.7
2019-04-20T01:01:58.201Z,11.7
2019-04-20T01:02:16.737Z,11.1
2019-04-20T01:02:33.222Z,11.7
2019-04-20T01:02:50.375Z,11.8
2019-04-20T01:03:13.233Z,10.6
2019-04-20T01:03:33.692Z,10.6
2019-04-20T01:03:49.315Z,11.5
2019-04-20T01:04:14.673Z,11
2019-04-20T01:04:28.825Z,11.5
2019-04-20T01:04:53.485Z,10.9
2019-04-20T01:05:10.545Z,11
2019-04-20T01:05:22.572Z,11.7
2019-04-20T01:05:51.915Z,11.1
2019-04-20T01:06:10.720Z,12.1
2019-04-20T01:06:26.738Z,12.7
2019-04-20T01:06:40.473Z,11.6
2019-04-20T01:07:01.038Z,12.7
2019-04-20T01:07:14.905Z,12.5
2019-04-20T01:07:34.538Z,12.3
2019-04-20T01:07:50.236Z,12.2
2019-04-20T01:08:05.156Z,11.8
2019-04-20T01:08:22.058Z,11.9
2019-04-20T01:08:41.055Z,11.4
2019-04-20T01:09:00.046Z,11.6
2019-04-20T01:09:19.014Z,12.4
2019-04-20T01:09:38.017Z,12.2
2019-04-20T01:09:57.039Z,11.9
2019-04-20T01:10:16.051Z,12.1
2019-04-20T01:10:41.537Z,12.2
2019-04-20T01:10:56.398Z,12.5
2019-04-20T01:11:16.396Z,11.9
2019-04-20T01:11:37.498Z,11.6
2019-04-20T01:11:51.621Z,12.2
2019-04-20T01:12:16.335Z,11.9
2019-04-20T01:12:31.663Z,12.1
2019-04-20T01:12:51.910Z,12.1
2019-04-20T01:13:12.132Z,12.3
2019-04-20T01:13:27.111Z,12.7
2019-04-20T01:13:50.783Z,12.3
2019-04-20T01:14:07.758Z,12.1
2019-04-20T01:14:32.723Z,12.6
2019-04-20T01:14:48.381Z,12.2
2019-04-20T01:15:04.213Z,12.1
2019-04-20T01:15:27.917Z,12.4
2019-04-20T01:15:47.017Z,12.4
2019-04-20T01:16:01.682Z,12.3
2019-04-20T01:16:23.937Z,11.9
2019-04-20T01:16:43.864Z,11.5
2019-04-20T01:17:00.402Z,12
2019-04-20T01:20:48.204Z,13.9
2019-04-20T01:21:13.753Z,13.8
2019-04-20T01:21:28.736Z,12.5
2019-04-20T01:21:52.468Z,12.5
2019-04-20T01:22:07.770Z,12.7
2019-04-20T01:22:25.357Z,12.3
2019-04-20T01:22:48.039Z,12
2019-04-20T01:23:07.328Z,12.9
2019-04-20T01:23:22.862Z,13.2
2019-04-20T01:23:45.782Z,12.5
2019-04-20T01:24:01.441Z,12.3
2019-04-20T01:24:23.639Z,12.2
2019-04-20T01:24:40.331Z,12.4
2019-04-20T01:24:55.275Z,12.7
2019-04-20T01:25:21.727Z,12.9
2019-04-20T01:25:37.576Z,13.1
2019-04-20T01:25:58.217Z,12.8
2019-04-20T01:26:14.307Z,12.5
2019-04-20T01:26:30.109Z,12.2
2019-04-20T01:26:53.636Z,12.7
2019-04-20T01:27:23.610Z,12.4
2019-04-20T01:27:39.495Z,12.5
2019-04-20T01:28:04.200Z,12.6
2019-04-20T01:28:24.118Z,13
2019-04-20T01:28:37.154Z,13.4
2019-04-20T01:28:53.992Z,13.5
2019-04-20T01:29:11.957Z,13
2019-04-20T01:29:30.120Z,13.2
2019-04-20T01:29:46.674Z,13.3
2019-04-20T01:30:05.722Z,12.8
2019-04-20T01:30:24.558Z,12.7
2019-04-20T01:30:43.024Z,12.8
2019-04-20T01:31:04.957Z,12.7
2019-04-20T01:31:24.019Z,13
2019-04-20T01:31:41.824Z,13.3
2019-04-20T01:32:04.292Z,13.6
2019-04-20T01:32:23.120Z,12.7
2019-04-20T01:32:39.409Z,13.2
2019-04-20T01:33:03.334Z,13.5
2019-04-20T01:33:20.988Z,13.4
2019-04-20T01:33:39.960Z,13.6
2019-04-20T01:33:54.902Z,13.4
2019-04-20T01:34:16.134Z,13.6
2019-04-20T01:34:38.838Z,13.6
2019-04-20T01:34:54.992Z,13.1
2019-04-20T01:35:14.603Z,12.2
2019-04-20T01:35:39.019Z,13.2
2019-04-20T01:35:56.502Z,13.3
2019-04-20T01:36:19.210Z,14
2019-04-20T01:36:36.702Z,13.4
2019-04-20T01:36:55.484Z,13
2019-04-20T01:37:12.974Z,13.2
2019-04-20T01:37:29.124Z,12.4
2019-04-20T01:37:52.666Z,12.7
2019-04-20T01:38:11.150Z,12.5
2019-04-20T01:38:30.219Z,12.7
2019-04-20T01:38:46.859Z,12.7
2019-04-20T01:39:02.583Z,13.3
2019-04-20T01:39:20.451Z,13.6
2019-04-20T01:39:36.948Z,13.2
2019-04-20T01:39:50.727Z,13.3
2019-04-20T01:40:08.193Z,14
2019-04-20T01:40:26.141Z,12.9
2019-04-20T01:40:45.152Z,12.3
2019-04-20T01:41:04.167Z,13.2
2019-04-20T01:41:23.171Z,11.9
2019-04-20T01:41:42.184Z,12.2
2019-04-20T01:42:01.120Z,12.9
2019-04-20T01:42:20.111Z,13.3
2019-04-20T01:42:39.135Z,14.1
2019-04-20T01:42:58.173Z,13.7
2019-04-20T01:43:17.162Z,14.2
2019-04-20T01:43:36.196Z,12.9
2019-04-20T01:43:55.142Z,12.7
2019-04-20T01:44:17.927Z,13.2
2019-04-20T01:44:38.437Z,13.1
2019-04-20T01:44:54.006Z,13
2019-04-20T01:45:17.780Z,13.6
2019-04-20T01:45:34.589Z,13.4
2019-04-20T01:45:56.616Z,13.2
2019-04-20T01:46:13.668Z,14
2019-04-20T01:46:28.765Z,13.4
2019-04-20T01:46:51.776Z,12.8
2019-04-20T01:47:07.039Z,12.7
2019-04-20T01:47:31.838Z,13.8
2019-04-20T01:47:47.745Z,14
2019-04-20T01:48:03.345Z,12.5
2019-04-20T01:48:27.372Z,13.5
2019-04-20T01:48:41.876Z,14.3
2019-04-20T01:49:05.559Z,12.4
2019-04-20T01:49:22.695Z,13.6
2019-04-20T01:49:38.917Z,13.7
2019-04-20T01:50:03.256Z,13.9
2019-04-20T01:50:20.882Z,13.8
2019-04-20T01:50:37.087Z,14.1
2019-04-20T01:51:03.654Z,13.6
2019-04-20T01:51:19.453Z,13.4
2019-04-20T01:51:43.870Z,14.1
2019-04-20T01:52:00.622Z,14.2
2019-04-20T01:52:15.957Z,13.3
2019-04-20T01:52:42.434Z,13.4
2019-04-20T01:52:57.646Z,14
2019-04-20T01:53:16.306Z,13.6
2019-04-20T01:53:43.967Z,13.6
2019-04-20T01:53:59.845Z,12.7
2019-04-20T01:54:20.178Z,13.2
2019-04-20T01:54:35.698Z,14.1
2019-04-20T01:55:04.586Z,13.6
2019-04-20T01:55:15.571Z,13.1
2019-04-20T01:55:38.457Z,13.3
2019-04-20T01:55:54.385Z,13.6
2019-04-20T01:56:12.337Z,13.9
2019-04-20T01:56:31.045Z,14.5
2019-04-20T01:56:46.871Z,13.5
2019-04-20T01:57:04.577Z,13.5
2019-04-20T01:57:22.545Z,14.2
2019-04-20T01:57:54.423Z,13.4
2019-04-20T01:58:11.254Z,13.5
2019-04-20T01:58:29.854Z,14.1
2019-04-20T01:58:46.003Z,13.9
2019-04-20T01:59:04.412Z,14
2019-04-20T01:59:22.662Z,13.7
2019-04-20T01:59:39.529Z,13.8
2019-04-20T01:59:57.058Z,14.8
2019-04-20T02:00:13.114Z,13.8
2019-04-20T02:00:30.647Z,14
2019-04-20T02:00:45.761Z,12.8
2019-04-20T02:01:09.624Z,13.3
2019-04-20T02:01:25.001Z,14.1
2019-04-20T02:01:42.743Z,13.5
2019-04-20T02:02:05.054Z,13.7
2019-04-20T02:02:21.454Z,13.8
2019-04-20T02:02:44.748Z,13.7
2019-04-20T02:02:59.186Z,13.9
2019-04-20T02:03:15.848Z,14.2
2019-04-20T02:03:40.131Z,14
2019-04-20T02:03:55.724Z,14
2019-04-20T02:04:20.037Z,14.5
2019-04-20T02:04:35.925Z,14.1
2019-04-20T02:04:52.469Z,13.7
2019-04-20T02:05:16.498Z,13.3
2019-04-20T02:05:32.673Z,13.9
2019-04-20T02:05:55.541Z,14.2
2019-04-20T02:06:11.405Z,14
2019-04-20T02:06:27.214Z,13.9
2019-04-20T02:06:50.278Z,14
2019-04-20T02:07:05.394Z,13.7
2019-04-20T02:07:28.107Z,14
2019-04-20T02:07:44.363Z,14.2
2019-04-20T02:08:00.700Z,14.2
2019-04-20T02:08:22.855Z,14.2
2019-04-20T02:08:38.675Z,14.2
2019-04-20T02:09:03.110Z,13.9
2019-04-20T02:09:20.985Z,14.3
2019-04-20T02:09:43.030Z,14.9
2019-04-20T02:09:59.694Z,13.9
2019-04-20T02:10:15.498Z,14.2
2019-04-20T02:10:41.535Z,14.1
2019-04-20T02:10:55.791Z,13.1
2019-04-20T02:11:18.444Z,13.3
2019-04-20T02:11:34.906Z,14.9
2019-04-20T02:11:50.740Z,15.2
2019-04-20T02:12:13.439Z,14.2
2019-04-20T02:12:31.048Z,14.8
2019-04-20T02:12:50.230Z,14.9
2019-04-20T02:13:06.503Z,14.7
2019-04-20T02:13:26.023Z,14.8
2019-04-20T02:13:49.763Z,15
2019-04-20T02:14:05.545Z,14.4
2019-04-20T02:14:28.518Z,14.9
2019-04-20T02:14:45.266Z,14.7
2019-04-20T02:15:02.624Z,14.8
2019-04-20T02:15:26.672Z,14.9
2019-04-20T02:15:42.076Z,14
2019-04-20T02:15:59.776Z,14.7
2019-04-20T02:16:24.277Z,14.8
2019-04-20T02:16:40.552Z,14.8
2019-04-20T02:17:04.135Z,14.9
2019-04-20T02:17:21.189Z,14.5
2019-04-20T02:17:39.091Z,14.3
2019-04-20T02:18:03.014Z,14.9
2019-04-20T02:18:22.516Z,15.3
2019-04-20T02:18:39.857Z,14.7
2019-04-20T02:19:05.137Z,14.9
2019-04-20T02:19:22.804Z,13.9
2019-04-20T02:19:37.579Z,15.3
2019-04-20T02:20:04.410Z,15.2
2019-04-20T02:20:22.650Z,14.6
2019-04-20T02:20:42.696Z,14.4
2019-04-20T02:20:59.510Z,14.8
2019-04-20T02:21:19.487Z,15.1
2019-04-20T02:21:37.650Z,15.2
2019-04-20T02:21:55.240Z,15.3
2019-04-20T02:22:09.573Z,14.5
2019-04-20T02:22:36.987Z,14.5
2019-04-20T02:22:51.432Z,14.5
2019-04-20T02:23:10.402Z,14.8
2019-04-20T02:23:24.783Z,14.1
2019-04-20T02:23:40.632Z,13.5
2019-04-20T02:23:57.701Z,14.8
2019-04-20T02:24:13.062Z,15.5
2019-04-20T02:24:30.734Z,15.3
2019-04-20T02:24:49.833Z,15.3
2019-04-20T02:25:08.771Z,14.9
2019-04-20T02:25:27.805Z,15.2
2019-04-20T02:25:46.883Z,15.1
2019-04-20T02:26:05.976Z,14.8
2019-04-20T02:26:24.820Z,15
2019-04-20T02:26:43.827Z,15.3
2019-04-20T02:27:02.807Z,16
2019-04-20T02:27:29.840Z,15.8
2019-04-20T02:27:46.857Z,14.9
2019-04-20T02:28:17.385Z,14.6
2019-04-20T02:28:37.078Z,14.4
2019-04-20T02:29:04.641Z,14.8
2019-04-20T02:29:17.147Z,14.9
2019-04-20T02:29:38.831Z,15.5
2019-04-20T02:29:57.999Z,15
2019-04-20T02:30:20.683Z,14.7
2019-04-20T02:30:47.257Z,14.9
2019-04-20T02:31:04.036Z,14.4
2019-04-20T02:31:40.557Z,15.5
2019-04-20T02:33:05.355Z,14.7
2019-04-20T02:33:25.643Z,15.4
2019-04-20T02:34:14.832Z,15.3
2019-04-20T02:34:38.946Z,15.1
2019-04-20T02:35:07.009Z,14.9
2019-04-20T02:35:34.205Z,16.1
2019-04-20T02:35:52.595Z,16.200001
2019-04-20T02:36:18.800Z,15.9
2019-04-20T02:36:50.636Z,14.6
2019-04-20T02:37:13.297Z,15.1
2019-04-20T02:37:35.573Z,15.3
2019-04-20T02:37:56.131Z,14.7
2019-04-20T02:38:21.394Z,15.8
2019-04-20T02:38:59.770Z,15.6
2019-04-20T02:39:28.534Z,15.4
2019-04-20T02:39:50.680Z,15
2019-04-20T02:40:15.196Z,15.2
2019-04-20T02:41:17.251Z,15
2019-04-20T02:41:34.734Z,14.4
2019-04-20T02:42:07.656Z,14.9
2019-04-20T02:42:33.736Z,14.5
2019-04-20T02:42:55.343Z,14.6
2019-04-20T02:43:24.689Z,14.7
2019-04-20T02:43:37.330Z,15.4
2019-04-20T02:43:57.498Z,15
2019-04-20T02:44:14.186Z,15.1
2019-04-20T02:44:30.209Z,16.299999
2019-04-20T02:45:08.402Z,14.6
2019-04-20T02:45:23.723Z,15.2
2019-04-20T02:45:57.182Z,14.8
2019-04-20T02:46:14.567Z,14.3
2019-04-20T02:46:40.622Z,15.4
2019-04-20T02:46:55.128Z,14.9
2019-04-20T02:47:29.943Z,15.7
2019-04-20T02:47:52.720Z,14.8
2019-04-20T02:48:07.482Z,15.3
2019-04-20T02:48:29.479Z,14.9
2019-04-20T02:48:49.785Z,15.2
2019-04-20T02:49:39.969Z,14.9
2019-04-20T02:49:56.261Z,15.1
2019-04-20T02:50:04.986Z,15
2019-04-20T02:50:18.824Z,15.6
2019-04-20T02:50:42.933Z,15.1
2019-04-20T02:50:58.183Z,15.6
2019-04-20T02:51:21.875Z,15.7
2019-04-20T02:51:52.185Z,15.6
2019-04-20T02:52:20.728Z,16.1
2019-04-20T02:52:48.289Z,16.1
2019-04-20T02:53:40.392Z,15
2019-04-20T02:54:00.165Z,15.2
2019-04-20T02:54:14.781Z,16.299999
2019-04-20T02:54:24.398Z,17.4
2019-04-20T02:54:52.212Z,16.6
2019-04-20T02:55:14.176Z,15.8
2019-04-20T02:55:47.437Z,16.5
2019-04-20T02:56:31.456Z,16
2019-04-20T02:56:31.460Z,16.9
2019-04-20T02:56:47.362Z,15.5
2019-04-20T02:57:04.355Z,15.4
2019-04-20T02:57:45.469Z,15.5
2019-04-20T02:58:00.200Z,15.3
2019-04-20T02:58:41.015Z,16.299999
2019-04-20T02:59:16.914Z,16.799999
2019-04-20T03:00:44.271Z,16.700001
2019-04-20T03:01:03.562Z,15.8
2019-04-20T03:01:19.958Z,15.3
2019-04-20T03:01:35.666Z,15.3
2019-04-20T03:01:54.559Z,15.6
2019-04-20T03:02:14.595Z,16.700001
2019-04-20T03:02:31.186Z,16.799999
2019-04-20T03:02:48.500Z,16.4
2019-04-20T03:03:07.594Z,16.200001
2019-04-20T03:03:22.459Z,16.4
2019-04-20T03:03:38.985Z,15.6
2019-04-20T03:03:56.538Z,15.5
2019-04-20T03:04:20.110Z,16.200001
2019-04-20T03:04:39.012Z,15.7
2019-04-20T03:05:02.337Z,14.9
2019-04-20T03:05:20.306Z,15.7
2019-04-20T03:05:38.119Z,16.5
2019-04-20T03:06:01.231Z,15.9
2019-04-20T03:06:19.375Z,15.9
2019-04-20T03:06:35.982Z,16
2019-04-20T03:06:58.223Z,16.799999
2019-04-20T03:07:14.754Z,16
2019-04-20T03:07:33.850Z,15.2
2019-04-20T03:07:56.964Z,16.5
2019-04-20T03:08:17.201Z,16
2019-04-20T03:08:34.859Z,16.299999
2019-04-20T03:08:56.157Z,16.799999
2019-04-20T03:09:19.674Z,15.8
2019-04-20T03:09:36.046Z,16.6
2019-04-20T03:09:49.962Z,16
2019-04-20T03:10:10.598Z,16.6
2019-04-20T03:10:40.751Z,16.4
2019-04-20T03:10:59.590Z,16.299999
2019-04-20T03:11:14.485Z,16
2019-04-20T03:11:39.371Z,16.299999
2019-04-20T03:11:58.064Z,16.200001
2019-04-20T03:12:07.817Z,16
2019-04-20T03:12:32.702Z,16.4
2019-04-20T03:12:42.608Z,16.299999
2019-04-20T03:13:07.783Z,16.299999
2019-04-20T03:13:23.906Z,16.5
2019-04-20T03:13:41.140Z,16.299999
2019-04-20T03:14:01.991Z,16.4
2019-04-20T03:14:17.270Z,15.9
2019-04-20T03:14:34.543Z,16.5
2019-04-20T03:14:54.951Z,15.7
2019-04-20T03:15:13.549Z,16.4
2019-04-20T03:15:37.356Z,16.700001
2019-04-20T03:15:54.645Z,15.1
2019-04-20T03:16:16.183Z,14.9
2019-04-20T03:16:31.561Z,15.9
2019-04-20T03:16:50.131Z,16.700001
2019-04-20T03:17:14.755Z,16.5
2019-04-20T03:17:32.482Z,16.299999
2019-04-20T03:17:50.640Z,15.9
2019-04-20T03:18:13.402Z,16.700001
2019-04-20T03:18:30.957Z,17.299999
2019-04-20T03:18:44.178Z,16.5
2019-04-20T03:19:02.339Z,16.299999
2019-04-20T03:19:23.185Z,16.9
2019-04-20T03:19:40.733Z,16.200001
2019-04-20T03:19:58.134Z,17.6
2019-04-20T03:20:26.922Z,17.1
2019-04-20T03:20:45.829Z,16.5
2019-04-20T03:21:05.242Z,17.200001
2019-04-20T03:21:24.413Z,16.799999
2019-04-20T03:21:43.023Z,16.6
2019-04-20T03:22:03.671Z,16.9
2019-04-20T03:22:20.866Z,16.9
2019-04-20T03:22:51.014Z,16.700001
2019-04-20T03:23:17.130Z,17.1
2019-04-20T03:23:35.142Z,16.4
2019-04-20T03:23:41.482Z,16.1
2019-04-20T03:23:58.828Z,16.6
2019-04-20T03:24:18.654Z,16.6
2019-04-20T03:24:37.236Z,17
2019-04-20T03:24:53.805Z,16.299999
2019-04-20T03:25:11.006Z,17.299999
2019-04-20T03:25:29.472Z,16.799999
2019-04-20T03:25:47.966Z,16.700001
2019-04-20T03:26:10.646Z,17.4
2019-04-20T03:26:27.335Z,17.6
2019-04-20T03:26:40.037Z,16.700001
2019-04-20T03:26:59.290Z,17.1
2019-04-20T03:27:18.226Z,18.1
2019-04-20T03:27:35.416Z,17.299999
2019-04-20T03:28:04.854Z,15.9
2019-04-20T03:28:18.099Z,16.9
2019-04-20T03:28:38.456Z,17.1
2019-04-20T03:28:56.510Z,16.1
2019-04-20T03:29:12.618Z,17.6
2019-04-20T03:29:39.600Z,17.700001
2019-04-20T03:29:55.994Z,15.6
2019-04-20T03:30:30.337Z,16.4
2019-04-20T03:31:28.790Z,16.6
2019-04-20T03:32:12.736Z,17.299999
2019-04-20T03:32:49.555Z,16.700001
2019-04-20T03:33:48.877Z,16.6
2019-04-20T03:34:12.778Z,17.299999
2019-04-20T03:34:37.380Z,16.9
2019-04-20T03:35:00.361Z,16.9
2019-04-20T03:35:11.856Z,17.200001
2019-04-20T03:35:22.014Z,16.6
2019-04-20T03:35:40.203Z,16.700001
2019-04-20T03:36:06.973Z,17.299999
2019-04-20T03:36:24.977Z,16.700001
2019-04-20T03:36:41.328Z,17.200001
2019-04-20T03:36:59.021Z,17.9
2019-04-20T03:37:19.168Z,17
2019-04-20T03:37:36.177Z,17.5
2019-04-20T03:37:52.306Z,17.700001
2019-04-20T03:38:10.297Z,17
2019-04-20T03:38:26.065Z,16.799999
2019-04-20T03:38:46.833Z,17.299999
2019-04-20T03:39:01.122Z,16.700001
2019-04-20T03:39:21.792Z,16.200001
2019-04-20T03:39:40.285Z,16.4
2019-04-20T03:39:56.577Z,17
2019-04-20T03:40:17.288Z,17.299999
2019-04-20T03:40:37.007Z,17.6
2019-04-20T03:40:53.919Z,17.200001
2019-04-20T03:41:11.614Z,16.4
2019-04-20T03:41:27.972Z,16.299999
2019-04-20T03:41:44.323Z,17
2019-04-20T03:41:59.143Z,17.200001
2019-04-20T03:42:16.769Z,16.799999
2019-04-20T03:42:35.839Z,17.799999
2019-04-20T03:42:55.696Z,16.200001
2019-04-20T03:43:14.719Z,17.5
2019-04-20T03:43:33.687Z,18.1
2019-04-20T03:43:53.983Z,17
2019-04-20T03:44:15.982Z,17.200001
2019-04-20T03:44:32.844Z,17.4
2019-04-20T03:44:56.832Z,17.4
2019-04-20T03:45:12.784Z,17.5
2019-04-20T03:45:31.807Z,16.5
2019-04-20T03:45:54.175Z,16.799999
2019-04-20T03:46:09.536Z,17.799999
2019-04-20T03:46:33.921Z,17.299999
2019-04-20T03:46:50.363Z,16.799999
2019-04-20T03:47:06.636Z,16.9
2019-04-20T03:47:30.108Z,16.700001
2019-04-20T03:47:52.709Z,17.4
2019-04-20T03:48:08.911Z,17.4
2019-04-20T03:48:35.734Z,17.200001
2019-04-20T03:48:54.476Z,17.5
2019-04-20T03:49:12.813Z,17.9
2019-04-20T03:49:41.864Z,16.799999
2019-04-20T03:50:10.345Z,17.5
2019-04-20T03:50:17.846Z,17.200001
2019-04-20T03:50:35.437Z,17.4
2019-04-20T03:50:50.235Z,16.200001
2019-04-20T03:51:06.897Z,16.299999
2019-04-20T03:51:33.186Z,16.200001
2019-04-20T03:51:46.617Z,17
2019-04-20T03:52:07.724Z,17.1
2019-04-20T03:52:23.228Z,17.6
2019-04-20T03:52:36.093Z,17.299999
2019-04-20T03:53:08.240Z,17.6
2019-04-20T03:53:22.517Z,17.9
2019-04-20T03:53:43.137Z,18.1
2019-04-20T03:53:58.576Z,18.200001
2019-04-20T03:54:15.609Z,17.299999
2019-04-20T03:54:34.270Z,17.799999
2019-04-20T03:54:49.993Z,18.799999
2019-04-20T03:55:15.983Z,17.799999
2019-04-20T03:55:35.315Z,17.799999
2019-04-20T03:55:52.505Z,17.1
2019-04-20T03:56:18.921Z,18.1
2019-04-20T03:56:33.351Z,18.700001
2019-04-20T03:56:48.987Z,18.200001
2019-04-20T03:57:16.869Z,17.799999
2019-04-20T03:57:34.204Z,17.9
2019-04-20T03:57:51.046Z,18.200001
2019-04-20T03:58:08.326Z,17.6
2019-04-20T03:58:23.618Z,18.4
2019-04-20T03:58:37.315Z,18.700001
2019-04-20T03:59:00.785Z,17.6
2019-04-20T03:59:18.481Z,17.200001
2019-04-20T03:59:41.118Z,17.1
2019-04-20T04:00:04.438Z,18.4
2019-04-20T04:00:21.383Z,17.799999
2019-04-20T04:00:35.325Z,18.299999
2019-04-20T04:00:54.135Z,19.200001
2019-04-20T04:01:16.112Z,18.4
2019-04-20T04:02:01.441Z,18.799999
2019-04-20T04:02:14.445Z,18.5
2019-04-20T04:02:29.529Z,18.1
2019-04-20T04:02:45.247Z,17.799999
2019-04-20T04:03:19.540Z,17.6
2019-04-20T04:03:40.731Z,17.799999
2019-04-20T04:03:52.936Z,18.5
2019-04-20T04:04:09.085Z,18.700001
2019-04-20T04:04:26.811Z,17.5
2019-04-20T04:04:49.106Z,18.299999
2019-04-20T04:05:04.152Z,19.4
2019-04-20T04:05:23.413Z,19
2019-04-20T04:05:40.668Z,18.700001
2019-04-20T04:05:55.426Z,19.700001
2019-04-20T04:06:14.694Z,19.200001
2019-04-20T04:06:28.381Z,17.9
2019-04-20T04:06:46.827Z,16.5
2019-04-20T04:07:04.333Z,17.5
2019-04-20T04:07:28.062Z,19.299999
2019-04-20T04:07:43.561Z,19.9
2019-04-20T04:08:05.000Z,18.5
2019-04-20T04:08:25.279Z,19.299999
2019-04-20T04:08:41.198Z,19.799999
2019-04-20T04:09:06.826Z,19.299999
2019-04-20T04:09:25.567Z,18.4
2019-04-20T04:09:39.530Z,18.6
2019-04-20T04:10:04.443Z,18.299999
2019-04-20T04:10:24.633Z,18.799999
2019-04-20T04:10:47.527Z,20.799999
2019-04-20T04:11:08.404Z,20.4
2019-04-20T04:11:25.912Z,19.9
2019-04-20T04:11:43.026Z,20.4
2019-04-20T04:11:58.357Z,19.299999
2019-04-20T04:12:15.186Z,18.799999
2019-04-20T04:12:30.312Z,19.6
2019-04-20T04:12:45.055Z,19.799999
2019-04-20T04:13:01.768Z,19.1
2019-04-20T04:13:21.614Z,19
2019-04-20T04:13:40.596Z,19.200001
2019-04-20T04:13:59.545Z,20.1
2019-04-20T04:14:18.573Z,18.700001
2019-04-20T04:14:37.578Z,19.5
2019-04-20T04:14:56.616Z,20.6
2019-04-20T04:15:15.569Z,19.5
2019-04-20T04:15:36.056Z,19.700001
2019-04-20T04:15:59.014Z,19.700001
2019-04-20T04:16:15.380Z,19.700001
2019-04-20T04:16:37.133Z,19.4
2019-04-20T04:16:54.658Z,20.200001
2019-04-20T04:17:13.204Z,18.9
2019-04-20T04:17:33.755Z,18
2019-04-20T04:17:48.578Z,19.4
2019-04-20T04:18:13.431Z,19.4
2019-04-20T04:18:31.554Z,19.9
2019-04-20T04:18:47.959Z,19.4
2019-04-20T04:19:12.504Z,19.4
2019-04-20T04:19:28.360Z,20.200001
2019-04-20T04:19:51.048Z,19.6
2019-04-20T04:20:06.743Z,18.700001
2019-04-20T04:20:21.325Z,17.6
2019-04-20T04:20:46.305Z,18.6
2019-04-20T04:21:03.513Z,18.5
2019-04-20T04:21:23.922Z,19.200001
2019-04-20T04:21:46.671Z,19.6
2019-04-20T04:22:08.500Z,20
2019-04-20T04:22:24.690Z,19.5
2019-04-20T04:22:48.861Z,19.1
2019-04-20T04:23:09.827Z,18.799999
2019-04-20T04:23:28.531Z,18.9
2019-04-20T04:23:44.314Z,20
2019-04-20T04:24:02.085Z,19
2019-04-20T04:24:19.842Z,18.1